createdAt,value
2023-05-14T00:00:29.865Z,984.92
2023-05-14T00:01:29.779Z,984.92
2023-05-14T00:02:30.068Z,984.88
2023-05-14T00:03:30.019Z,984.90
2023-05-14T00:04:29.764Z,984.90
2023-05-14T00:05:29.715Z,984.88
2023-05-14T00:06:29.715Z,984.85
2023-05-14T00:07:29.739Z,984.84
2023-05-14T00:08:29.707Z,984.83
2023-05-14T00:09:29.701Z,984.81
2023-05-14T00:10:29.717Z,984.78
2023-05-14T00:11:29.651Z,984.79
2023-05-14T00:12:29.651Z,984.79
2023-05-14T00:13:29.643Z,984.80
2023-05-14T00:14:29.582Z,984.78
2023-05-14T00:15:30.039Z,984.76
2023-05-14T00:16:29.668Z,984.81
2023-05-14T00:17:29.585Z,984.81
2023-05-14T00:18:29.592Z,984.81
2023-05-14T00:19:29.553Z,984.79
2023-05-14T00:20:29.546Z,984.80
2023-05-14T00:21:29.543Z,984.80
2023-05-14T00:22:29.542Z,984.79
2023-05-14T00:23:29.890Z,984.83
2023-05-14T00:24:29.493Z,984.74
2023-05-14T00:25:29.465Z,984.80
2023-05-14T00:26:30.062Z,984.77
2023-05-14T00:27:29.506Z,984.76
2023-05-14T00:28:29.490Z,984.75
2023-05-14T00:29:29.429Z,984.75
2023-05-14T00:30:29.421Z,984.73
2023-05-14T00:31:29.493Z,984.75
2023-05-14T00:32:29.424Z,984.74
2023-05-14T00:33:29.378Z,984.75
2023-05-14T00:34:29.427Z,984.73
2023-05-14T00:35:29.351Z,984.68
2023-05-14T00:36:29.372Z,984.69
2023-05-14T00:37:29.513Z,984.65
2023-05-14T00:38:29.335Z,984.65
2023-05-14T00:39:29.313Z,984.65
2023-05-14T00:40:29.512Z,984.62
2023-05-14T00:41:29.327Z,984.62
2023-05-14T00:42:29.373Z,984.62
2023-05-14T00:43:29.270Z,984.63
2023-05-14T00:44:29.461Z,984.58
2023-05-14T00:45:29.263Z,984.59
2023-05-14T00:46:29.305Z,984.59
2023-05-14T00:47:29.269Z,984.55
2023-05-14T00:48:29.398Z,984.56
2023-05-14T00:49:29.208Z,984.56
2023-05-14T00:50:29.205Z,984.57
2023-05-14T00:51:29.822Z,984.53
2023-05-14T00:52:29.227Z,984.54
2023-05-14T00:53:29.218Z,984.57
2023-05-14T00:54:29.332Z,984.57
2023-05-14T00:55:29.133Z,984.52
2023-05-14T00:56:29.171Z,984.54
2023-05-14T00:57:29.352Z,984.52
2023-05-14T00:58:29.470Z,984.56
2023-05-14T00:59:29.077Z,984.52
2023-05-14T01:00:29.169Z,984.51
2023-05-14T01:01:29.132Z,984.47
2023-05-14T01:02:29.148Z,984.47
2023-05-14T01:03:29.164Z,984.45
2023-05-14T01:04:29.099Z,984.48
2023-05-14T01:05:29.019Z,984.49
2023-05-14T01:06:29.028Z,984.48
2023-05-14T01:07:29.011Z,984.46
2023-05-14T01:08:28.995Z,984.45
2023-05-14T01:09:28.957Z,984.47
2023-05-14T01:10:29.062Z,984.46
2023-05-14T01:11:28.929Z,984.43
2023-05-14T01:12:28.962Z,984.45
2023-05-14T01:13:28.904Z,984.45
2023-05-14T01:14:28.933Z,984.46
2023-05-14T01:15:28.919Z,984.50
2023-05-14T01:16:29.070Z,984.43
2023-05-14T01:17:28.950Z,984.46
2023-05-14T01:18:28.908Z,984.43
2023-05-14T01:19:28.982Z,984.48
2023-05-14T01:20:28.883Z,984.41
2023-05-14T01:21:28.832Z,984.40
2023-05-14T01:22:28.834Z,984.41
2023-05-14T01:23:29.145Z,984.44
2023-05-14T01:24:29.025Z,984.40
2023-05-14T01:25:29.023Z,984.39
2023-05-14T01:26:29.342Z,984.37
2023-05-14T01:27:28.760Z,984.37
2023-05-14T01:28:28.771Z,984.35
2023-05-14T01:29:28.730Z,984.43
2023-05-14T01:30:28.756Z,984.41
2023-05-14T01:31:28.777Z,984.43
2023-05-14T01:32:28.810Z,984.43
2023-05-14T01:33:28.703Z,984.46
2023-05-14T01:34:28.702Z,984.43
2023-05-14T01:35:28.653Z,984.43
2023-05-14T01:36:28.653Z,984.43
2023-05-14T01:37:29.121Z,984.41
2023-05-14T01:38:28.681Z,984.42
2023-05-14T01:39:28.643Z,984.39
2023-05-14T01:40:28.611Z,984.37
2023-05-14T01:41:28.577Z,984.38
2023-05-14T01:42:28.622Z,984.36
2023-05-14T01:43:29.115Z,984.36
2023-05-14T01:44:29.085Z,984.34
2023-05-14T01:45:28.560Z,984.35
2023-05-14T01:46:28.617Z,984.35
2023-05-14T01:47:28.568Z,984.34
2023-05-14T01:48:28.525Z,984.32
2023-05-14T01:49:28.493Z,984.31
2023-05-14T01:50:28.514Z,984.32
2023-05-14T01:51:28.472Z,984.33
2023-05-14T01:52:28.484Z,984.33
2023-05-14T01:53:28.438Z,984.36
2023-05-14T01:54:28.459Z,984.33
2023-05-14T01:55:28.403Z,984.35
2023-05-14T01:56:28.475Z,984.37
2023-05-14T01:57:28.407Z,984.31
2023-05-14T01:58:28.398Z,984.32
2023-05-14T01:59:28.459Z,984.33
2023-05-14T02:00:28.393Z,984.32
2023-05-14T02:01:28.388Z,984.26
2023-05-14T02:02:28.407Z,984.26
2023-05-14T02:03:28.360Z,984.20
2023-05-14T02:04:28.416Z,984.20
2023-05-14T02:05:28.478Z,984.23
2023-05-14T02:06:28.305Z,984.20
2023-05-14T02:07:28.297Z,984.23
2023-05-14T02:08:28.319Z,984.21
2023-05-14T02:09:28.619Z,984.19
2023-05-14T02:10:28.290Z,984.23
2023-05-14T02:11:28.224Z,984.17
2023-05-14T02:12:28.277Z,984.18
2023-05-14T02:13:28.215Z,984.18
2023-05-14T02:14:28.221Z,984.20
2023-05-14T02:15:28.241Z,984.14
2023-05-14T02:16:28.252Z,984.11
2023-05-14T02:17:28.223Z,984.11
2023-05-14T02:18:28.410Z,984.07
2023-05-14T02:19:28.143Z,984.12
2023-05-14T02:20:28.240Z,984.13
2023-05-14T02:21:28.147Z,984.11
2023-05-14T02:22:28.135Z,984.19
2023-05-14T02:23:40.476Z,984.17
2023-05-14T02:24:29.142Z,984.13
2023-05-14T02:25:28.204Z,984.13
2023-05-14T02:26:28.239Z,984.16
2023-05-14T02:27:28.047Z,984.11
2023-05-14T02:28:28.057Z,984.10
2023-05-14T02:29:28.067Z,984.12
2023-05-14T02:30:28.030Z,984.10
2023-05-14T02:31:28.026Z,984.14
2023-05-14T02:32:28.206Z,984.12
2023-05-14T02:33:28.026Z,984.13
2023-05-14T02:34:28.176Z,984.09
2023-05-14T02:35:28.287Z,984.10
2023-05-14T02:36:27.997Z,984.07
2023-05-14T02:37:27.968Z,984.12
2023-05-14T02:38:27.979Z,984.11
2023-05-14T02:39:27.935Z,984.15
2023-05-14T02:40:27.921Z,984.14
2023-05-14T02:41:27.905Z,984.15
2023-05-14T02:42:27.929Z,984.07
2023-05-14T02:43:27.872Z,984.08
2023-05-14T02:44:28.035Z,984.10
2023-05-14T02:45:28.277Z,984.09
2023-05-14T02:46:28.126Z,984.10
2023-05-14T02:47:27.873Z,984.04
2023-05-14T02:48:27.820Z,984.08
2023-05-14T02:49:27.828Z,984.07
2023-05-14T02:50:27.803Z,984.10
2023-05-14T02:51:27.770Z,984.08
2023-05-14T02:52:27.841Z,984.08
2023-05-14T02:53:27.765Z,984.06
2023-05-14T02:54:27.784Z,984.04
2023-05-14T02:55:27.764Z,984.05
2023-05-14T02:56:27.742Z,984.06
2023-05-14T02:57:27.706Z,984.03
2023-05-14T02:58:28.523Z,984.05
2023-05-14T02:59:27.714Z,984.05
2023-05-14T03:00:27.685Z,984.04
2023-05-14T03:01:27.712Z,984.05
2023-05-14T03:02:27.742Z,984.03
2023-05-14T03:03:27.686Z,984.04
2023-05-14T03:04:27.637Z,983.98
2023-05-14T03:05:27.612Z,984.03
2023-05-14T03:06:27.639Z,983.99
2023-05-14T03:07:27.591Z,983.98
2023-05-14T03:08:27.805Z,983.99
2023-05-14T03:09:27.584Z,983.95
2023-05-14T03:10:27.598Z,983.97
2023-05-14T03:11:27.541Z,983.93
2023-05-14T03:12:27.560Z,983.95
2023-05-14T03:13:27.576Z,983.95
2023-05-14T03:14:27.543Z,983.96
2023-05-14T03:15:27.562Z,983.93
2023-05-14T03:16:27.581Z,983.95
2023-05-14T03:17:27.517Z,983.96
2023-05-14T03:18:27.569Z,983.95
2023-05-14T03:19:27.492Z,983.92
2023-05-14T03:20:27.463Z,983.95
2023-05-14T03:21:27.463Z,983.95
2023-05-14T03:22:27.449Z,983.97
2023-05-14T03:23:27.442Z,983.93
2023-05-14T03:24:27.525Z,983.97
2023-05-14T03:25:27.410Z,983.92
2023-05-14T03:26:27.828Z,983.97
2023-05-14T03:27:27.515Z,983.90
2023-05-14T03:28:27.390Z,983.92
2023-05-14T03:29:27.404Z,983.93
2023-05-14T03:30:27.443Z,983.93
2023-05-14T03:31:27.386Z,983.94
2023-05-14T03:32:27.392Z,983.93
2023-05-14T03:33:27.300Z,983.88
2023-05-14T03:34:27.312Z,983.88
2023-05-14T03:35:27.501Z,983.93
2023-05-14T03:36:27.316Z,983.93
2023-05-14T03:37:27.293Z,983.93
2023-05-14T03:38:27.286Z,983.93
2023-05-14T03:39:27.251Z,983.94
2023-05-14T03:40:27.252Z,983.92
2023-05-14T03:41:27.334Z,983.96
2023-05-14T03:42:27.274Z,983.92
2023-05-14T03:43:27.212Z,983.93
2023-05-14T03:44:27.212Z,983.94
2023-05-14T03:45:27.279Z,983.91
2023-05-14T03:46:27.551Z,983.88
2023-05-14T03:47:27.172Z,983.92
2023-05-14T03:48:27.383Z,983.90
2023-05-14T03:49:27.125Z,983.88
2023-05-14T03:50:27.139Z,983.87
2023-05-14T03:51:27.086Z,983.88
2023-05-14T03:52:27.114Z,983.86
2023-05-14T03:53:27.130Z,983.89
2023-05-14T03:54:27.098Z,983.83
2023-05-14T03:55:27.054Z,983.87
2023-05-14T03:56:27.076Z,983.87
2023-05-14T03:57:27.113Z,983.84
2023-05-14T03:58:27.049Z,983.83
2023-05-14T03:59:27.009Z,983.81
2023-05-14T04:00:27.561Z,983.85
2023-05-14T04:01:27.168Z,983.87
2023-05-14T04:02:27.070Z,983.89
2023-05-14T04:03:27.075Z,983.85
2023-05-14T04:04:27.249Z,983.83
2023-05-14T04:05:26.976Z,983.85
2023-05-14T04:06:27.103Z,983.82
2023-05-14T04:07:27.090Z,983.87
2023-05-14T04:08:27.025Z,983.86
2023-05-14T04:09:27.052Z,983.88
2023-05-14T04:10:26.943Z,983.83
2023-05-14T04:11:26.907Z,983.89
2023-05-14T04:12:27.051Z,983.88
2023-05-14T04:13:27.140Z,983.91
2023-05-14T04:14:27.045Z,983.86
2023-05-14T04:15:26.840Z,983.89
2023-05-14T04:16:26.926Z,983.90
2023-05-14T04:17:26.928Z,983.89
2023-05-14T04:18:26.837Z,983.93
2023-05-14T04:19:26.790Z,983.91
2023-05-14T04:20:26.841Z,983.91
2023-05-14T04:21:26.784Z,983.89
2023-05-14T04:22:26.789Z,983.90
2023-05-14T04:23:26.742Z,983.95
2023-05-14T04:24:26.780Z,983.88
2023-05-14T04:25:26.707Z,983.85
2023-05-14T04:26:26.734Z,983.84
2023-05-14T04:27:26.723Z,983.90
2023-05-14T04:28:26.732Z,983.88
2023-05-14T04:29:26.722Z,983.82
2023-05-14T04:30:26.710Z,983.81
2023-05-14T04:31:26.691Z,983.81
2023-05-14T04:32:26.714Z,983.83
2023-05-14T04:33:26.642Z,983.83
2023-05-14T04:34:26.689Z,983.84
2023-05-14T04:35:26.601Z,983.81
2023-05-14T04:36:26.642Z,983.82
2023-05-14T04:37:26.619Z,983.79
2023-05-14T04:38:26.607Z,983.83
2023-05-14T04:39:26.997Z,983.84
2023-05-14T04:40:26.869Z,983.85
2023-05-14T04:41:26.575Z,983.81
2023-05-14T04:42:26.563Z,983.81
2023-05-14T04:43:26.547Z,983.80
2023-05-14T04:44:26.514Z,983.80
2023-05-14T04:45:26.531Z,983.84
2023-05-14T04:46:26.709Z,983.82
2023-05-14T04:47:26.535Z,983.83
2023-05-14T04:48:26.820Z,983.84
2023-05-14T04:49:26.508Z,983.84
2023-05-14T04:50:26.512Z,983.84
2023-05-14T04:51:26.465Z,983.85
2023-05-14T04:52:26.412Z,983.88
2023-05-14T04:53:26.500Z,983.90
2023-05-14T04:54:26.578Z,983.92
2023-05-14T04:55:26.610Z,983.93
2023-05-14T04:56:26.598Z,983.93
2023-05-14T04:57:26.385Z,983.92
2023-05-14T04:58:26.778Z,983.93
2023-05-14T04:59:26.445Z,983.86
2023-05-14T05:00:26.954Z,983.84
2023-05-14T05:01:27.883Z,983.84
2023-05-14T05:02:26.343Z,983.89
2023-05-14T05:03:27.067Z,983.88
2023-05-14T05:04:26.356Z,983.90
2023-05-14T05:05:26.488Z,983.91
2023-05-14T05:06:26.482Z,983.97
2023-05-14T05:07:26.495Z,983.96
2023-05-14T05:08:26.487Z,983.96
2023-05-14T05:09:26.528Z,983.96
2023-05-14T05:10:26.591Z,983.98
2023-05-14T05:11:26.233Z,983.99
2023-05-14T05:12:26.221Z,983.97
2023-05-14T05:13:26.213Z,983.96
2023-05-14T05:14:26.183Z,983.99
2023-05-14T05:15:26.734Z,983.93
2023-05-14T05:16:26.294Z,983.94
2023-05-14T05:17:26.190Z,983.92
2023-05-14T05:18:26.213Z,983.94
2023-05-14T05:19:35.661Z,983.96
2023-05-14T05:20:27.149Z,983.92
2023-05-14T05:21:26.119Z,983.93
2023-05-14T05:22:26.103Z,983.89
2023-05-14T05:23:26.110Z,983.89
2023-05-14T05:24:26.047Z,983.91
2023-05-14T05:25:26.088Z,983.94
2023-05-14T05:26:26.140Z,983.97
2023-05-14T05:27:26.076Z,983.91
2023-05-14T05:28:26.012Z,983.87
2023-05-14T05:29:26.029Z,983.83
2023-05-14T05:30:26.212Z,983.89
2023-05-14T05:31:26.063Z,983.87
2023-05-14T05:32:26.008Z,983.92
2023-05-14T05:33:26.014Z,983.94
2023-05-14T05:34:25.957Z,983.93
2023-05-14T05:35:25.981Z,983.89
2023-05-14T05:36:25.997Z,983.95
2023-05-14T05:37:25.922Z,983.93
2023-05-14T05:38:25.891Z,983.89
2023-05-14T05:39:25.898Z,983.87
2023-05-14T05:40:26.003Z,983.94
2023-05-14T05:41:25.900Z,983.92
2023-05-14T05:42:25.840Z,983.86
2023-05-14T05:43:25.861Z,983.87
2023-05-14T05:44:25.820Z,983.86
2023-05-14T05:45:25.836Z,983.87
2023-05-14T05:46:25.879Z,983.84
2023-05-14T05:47:25.819Z,983.86
2023-05-14T05:48:25.789Z,983.87
2023-05-14T05:49:26.271Z,983.82
2023-05-14T05:50:26.256Z,983.81
2023-05-14T05:51:25.781Z,983.82
2023-05-14T05:52:25.814Z,983.79
2023-05-14T05:53:25.770Z,983.80
2023-05-14T05:54:25.718Z,983.80
2023-05-14T05:55:25.747Z,983.80
2023-05-14T05:56:25.672Z,983.81
2023-05-14T05:57:26.403Z,983.80
2023-05-14T05:58:25.652Z,983.81
2023-05-14T05:59:25.709Z,983.78
2023-05-14T06:00:26.045Z,983.75
2023-05-14T06:01:25.676Z,983.76
2023-05-14T06:02:25.655Z,983.79
2023-05-14T06:03:25.678Z,983.74
2023-05-14T06:04:25.584Z,983.75
2023-05-14T06:05:25.680Z,983.73
2023-05-14T06:06:25.579Z,983.75
2023-05-14T06:07:25.573Z,983.77
2023-05-14T06:08:25.567Z,983.76
2023-05-14T06:09:25.570Z,983.74
2023-05-14T06:10:26.103Z,983.75
2023-05-14T06:11:25.979Z,983.76
2023-05-14T06:12:25.548Z,983.75
2023-05-14T06:13:25.531Z,983.81
2023-05-14T06:14:25.485Z,983.75
2023-05-14T06:15:25.503Z,983.76
2023-05-14T06:16:25.546Z,983.73
2023-05-14T06:17:25.721Z,983.75
2023-05-14T06:18:25.509Z,983.74
2023-05-14T06:19:25.459Z,983.74
2023-05-14T06:20:25.681Z,983.76
2023-05-14T06:21:25.464Z,983.79
2023-05-14T06:22:25.456Z,983.76
2023-05-14T06:23:25.421Z,983.79
2023-05-14T06:24:25.379Z,983.76
2023-05-14T06:25:25.397Z,983.83
2023-05-14T06:26:25.976Z,983.82
2023-05-14T06:27:25.361Z,983.83
2023-05-14T06:28:25.340Z,983.80
2023-05-14T06:29:25.361Z,983.81
2023-05-14T06:30:25.599Z,983.80
2023-05-14T06:31:25.349Z,983.82
2023-05-14T06:32:25.387Z,983.85
2023-05-14T06:33:25.343Z,983.81
2023-05-14T06:34:25.267Z,983.80
2023-05-14T06:35:25.275Z,983.80
2023-05-14T06:36:25.251Z,983.80
2023-05-14T06:37:25.272Z,983.83
2023-05-14T06:38:25.227Z,983.79
2023-05-14T06:39:25.265Z,983.79
2023-05-14T06:40:25.405Z,983.79
2023-05-14T06:41:25.233Z,983.76
2023-05-14T06:42:25.181Z,983.80
2023-05-14T06:43:25.192Z,983.75
2023-05-14T06:44:25.175Z,983.76
2023-05-14T06:45:25.156Z,983.73
2023-05-14T06:46:25.117Z,983.74
2023-05-14T06:47:25.229Z,983.73
2023-05-14T06:48:25.190Z,983.75
2023-05-14T06:49:25.178Z,983.71
2023-05-14T06:50:25.265Z,983.71
2023-05-14T06:51:25.264Z,983.71
2023-05-14T06:52:25.262Z,983.68
2023-05-14T06:53:25.146Z,983.69
2023-05-14T06:54:25.047Z,983.67
2023-05-14T06:55:25.049Z,983.68
2023-05-14T06:56:24.999Z,983.71
2023-05-14T06:57:25.015Z,983.70
2023-05-14T06:58:25.018Z,983.75
2023-05-14T06:59:24.983Z,983.71
2023-05-14T07:00:25.226Z,983.76
2023-05-14T07:01:25.036Z,983.72
2023-05-14T07:02:24.965Z,983.75
2023-05-14T07:03:25.706Z,983.73
2023-05-14T07:04:24.928Z,983.71
2023-05-14T07:05:25.356Z,983.72
2023-05-14T07:06:24.941Z,983.68
2023-05-14T07:07:24.901Z,983.73
2023-05-14T07:08:24.952Z,983.68
2023-05-14T07:09:24.895Z,983.68
2023-05-14T07:10:26.569Z,983.72
2023-05-14T07:11:26.094Z,983.71
2023-05-14T07:12:25.088Z,983.74
2023-05-14T07:13:27.590Z,983.77
2023-05-14T07:14:24.823Z,983.72
2023-05-14T07:15:24.813Z,983.70
2023-05-14T07:16:25.043Z,983.68
2023-05-14T07:17:24.956Z,983.67
2023-05-14T07:18:24.866Z,983.64
2023-05-14T07:19:24.769Z,983.65
2023-05-14T07:20:25.011Z,983.67
2023-05-14T07:21:24.750Z,983.64
2023-05-14T07:22:24.710Z,983.65
2023-05-14T07:23:24.730Z,983.68
2023-05-14T07:24:24.724Z,983.62
2023-05-14T07:25:24.738Z,983.65
2023-05-14T07:26:24.704Z,983.58
2023-05-14T07:27:24.665Z,983.53
2023-05-14T07:28:24.639Z,983.56
2023-05-14T07:29:24.656Z,983.51
2023-05-14T07:30:24.997Z,983.51
2023-05-14T07:31:24.669Z,983.45
2023-05-14T07:32:24.654Z,983.48
2023-05-14T07:33:24.625Z,983.50
2023-05-14T07:34:24.552Z,983.47
2023-05-14T07:35:31.650Z,983.45
2023-05-14T07:36:25.288Z,983.46
2023-05-14T07:37:24.536Z,983.43
2023-05-14T07:38:25.247Z,983.41
2023-05-14T07:39:25.401Z,983.42
2023-05-14T07:40:24.668Z,983.36
2023-05-14T07:41:24.538Z,983.39
2023-05-14T07:42:35.394Z,983.43
2023-05-14T07:43:25.509Z,983.45
2023-05-14T07:44:24.472Z,983.44
2023-05-14T07:45:24.653Z,983.38
2023-05-14T07:46:24.790Z,983.38
2023-05-14T07:47:24.526Z,983.38
2023-05-14T07:48:24.564Z,983.37
2023-05-14T07:49:24.444Z,983.37
2023-05-14T07:50:24.714Z,983.31
2023-05-14T07:51:24.455Z,983.34
2023-05-14T07:52:24.384Z,983.32
2023-05-14T07:53:24.955Z,983.33
2023-05-14T07:54:24.375Z,983.34
2023-05-14T07:55:24.390Z,983.33
2023-05-14T07:56:24.333Z,983.35
2023-05-14T07:57:24.622Z,983.34
2023-05-14T07:58:24.287Z,983.29
2023-05-14T07:59:24.325Z,983.36
2023-05-14T08:00:24.555Z,983.34
2023-05-14T08:01:24.371Z,983.34
2023-05-14T08:02:24.359Z,983.31
2023-05-14T08:03:24.304Z,983.28
2023-05-14T08:04:24.272Z,983.29
2023-05-14T08:05:24.245Z,983.28
2023-05-14T08:06:24.270Z,983.25
2023-05-14T08:07:24.238Z,983.26
2023-05-14T08:08:24.343Z,983.27
2023-05-14T08:09:24.245Z,983.28
2023-05-14T08:10:24.244Z,983.26
2023-05-14T08:11:24.172Z,983.31
2023-05-14T08:12:24.267Z,983.28
2023-05-14T08:13:24.245Z,983.29
2023-05-14T08:14:24.174Z,983.26
2023-05-14T08:15:27.084Z,983.32
2023-05-14T08:16:24.954Z,983.30
2023-05-14T08:17:24.145Z,983.32
2023-05-14T08:18:24.063Z,983.30
2023-05-14T08:19:24.076Z,983.28
2023-05-14T08:20:24.252Z,983.33
2023-05-14T08:21:24.157Z,983.28
2023-05-14T08:22:24.019Z,983.27
2023-05-14T08:23:24.038Z,983.27
2023-05-14T08:24:24.000Z,983.25
2023-05-14T08:25:24.028Z,983.26
2023-05-14T08:26:23.961Z,983.21
2023-05-14T08:27:24.003Z,983.22
2023-05-14T08:28:24.030Z,983.22
2023-05-14T08:29:23.989Z,983.21
2023-05-14T08:30:24.180Z,983.18
2023-05-14T08:31:24.027Z,983.21
2023-05-14T08:32:24.371Z,983.16
2023-05-14T08:33:24.015Z,983.23
2023-05-14T08:34:23.943Z,983.15
2023-05-14T08:35:23.895Z,983.17
2023-05-14T08:36:23.866Z,983.17
2023-05-14T08:37:24.067Z,983.20
2023-05-14T08:38:24.205Z,983.20
2023-05-14T08:39:23.903Z,983.21
2023-05-14T08:40:24.180Z,983.18
2023-05-14T08:41:23.828Z,983.16
2023-05-14T08:42:23.825Z,983.18
2023-05-14T08:43:23.832Z,983.19
2023-05-14T08:44:23.762Z,983.18
2023-05-14T08:45:23.845Z,983.19
2023-05-14T08:46:23.755Z,983.17
2023-05-14T08:47:23.958Z,983.17
2023-05-14T08:48:23.798Z,983.15
2023-05-14T08:49:23.738Z,983.18
2023-05-14T08:50:23.905Z,983.17
2023-05-14T08:51:23.709Z,983.18
2023-05-14T08:52:23.693Z,983.14
2023-05-14T08:53:23.874Z,983.15
2023-05-14T08:54:23.855Z,983.18
2023-05-14T08:55:23.810Z,983.11
2023-05-14T08:56:23.998Z,983.12
2023-05-14T08:57:24.006Z,983.12
2023-05-14T08:58:24.002Z,983.11
2023-05-14T08:59:24.099Z,983.13
2023-05-14T09:00:24.021Z,983.12
2023-05-14T09:01:24.172Z,983.12
2023-05-14T09:02:23.673Z,983.10
2023-05-14T09:03:24.002Z,983.01
2023-05-14T09:04:23.560Z,983.02
2023-05-14T09:05:23.546Z,983.01
2023-05-14T09:06:23.546Z,983.01
2023-05-14T09:07:23.701Z,983.00
2023-05-14T09:08:23.719Z,982.99
2023-05-14T09:09:23.481Z,982.93
2023-05-14T09:10:23.756Z,982.96
2023-05-14T09:11:23.574Z,982.94
2023-05-14T09:12:23.477Z,982.93
2023-05-14T09:13:23.435Z,982.92
2023-05-14T09:14:23.520Z,982.91
2023-05-14T09:15:23.510Z,982.91
2023-05-14T09:16:23.488Z,982.87
2023-05-14T09:17:23.478Z,982.88
2023-05-14T09:18:23.426Z,982.93
2023-05-14T09:19:23.400Z,982.95
2023-05-14T09:20:23.802Z,982.92
2023-05-14T09:21:23.392Z,982.95
2023-05-14T09:22:23.405Z,982.93
2023-05-14T09:23:23.397Z,982.96
2023-05-14T09:24:23.351Z,982.97
2023-05-14T09:25:23.294Z,982.93
2023-05-14T09:26:23.329Z,982.93
2023-05-14T09:27:23.280Z,982.96
2023-05-14T09:28:23.293Z,982.92
2023-05-14T09:29:23.348Z,982.92
2023-05-14T09:30:23.778Z,982.88
2023-05-14T09:31:23.338Z,982.82
2023-05-14T09:32:23.277Z,982.83
2023-05-14T09:33:23.423Z,982.83
2023-05-14T09:34:23.646Z,982.77
2023-05-14T09:35:23.256Z,982.85
2023-05-14T09:36:23.197Z,982.88
2023-05-14T09:37:23.170Z,982.85
2023-05-14T09:38:23.273Z,982.80
2023-05-14T09:39:23.355Z,982.75
2023-05-14T09:40:24.089Z,982.75
2023-05-14T09:41:23.202Z,982.74
2023-05-14T09:42:23.177Z,982.76
2023-05-14T09:43:23.095Z,982.78
2023-05-14T09:44:23.123Z,982.74
2023-05-14T09:45:23.084Z,982.75
2023-05-14T09:46:23.088Z,982.73
2023-05-14T09:47:23.135Z,982.73
2023-05-14T09:48:23.182Z,982.77
2023-05-14T09:49:23.346Z,982.78
2023-05-14T09:50:23.373Z,982.72
2023-05-14T09:51:23.022Z,982.71
2023-05-14T09:52:23.033Z,982.72
2023-05-14T09:53:23.488Z,982.70
2023-05-14T09:54:22.989Z,982.70
2023-05-14T09:55:23.425Z,982.70
2023-05-14T09:56:23.386Z,982.72
2023-05-14T09:57:22.947Z,982.68
2023-05-14T09:58:22.987Z,982.71
2023-05-14T09:59:22.973Z,982.65
2023-05-14T10:00:23.848Z,982.66
2023-05-14T10:01:22.993Z,982.65
2023-05-14T10:02:22.975Z,982.59
2023-05-14T10:03:22.906Z,982.63
2023-05-14T10:04:22.943Z,982.57
2023-05-14T10:05:22.839Z,982.59
2023-05-14T10:06:22.899Z,982.58
2023-05-14T10:07:22.832Z,982.55
2023-05-14T10:08:23.192Z,982.53
2023-05-14T10:09:22.791Z,982.54
2023-05-14T10:10:23.606Z,982.57
2023-05-14T10:11:22.877Z,982.53
2023-05-14T10:12:23.082Z,982.55
2023-05-14T10:13:22.795Z,982.60
2023-05-14T10:14:22.846Z,982.57
2023-05-14T10:15:23.530Z,982.59
2023-05-14T10:16:23.032Z,982.54
2023-05-14T10:17:23.080Z,982.56
2023-05-14T10:18:22.874Z,982.54
2023-05-14T10:19:23.021Z,982.56
2023-05-14T10:20:23.189Z,982.49
2023-05-14T10:21:22.758Z,982.49
2023-05-14T10:22:22.832Z,982.49
2023-05-14T10:23:22.688Z,982.44
2023-05-14T10:24:22.764Z,982.41
2023-05-14T10:25:22.761Z,982.42
2023-05-14T10:26:23.968Z,982.43
2023-05-14T10:27:22.593Z,982.41
2023-05-14T10:28:22.651Z,982.34
2023-05-14T10:29:22.584Z,982.36
2023-05-14T10:30:22.907Z,982.39
2023-05-14T10:31:22.612Z,982.38
2023-05-14T10:32:22.649Z,982.36
2023-05-14T10:33:22.850Z,982.35
2023-05-14T10:34:22.525Z,982.28
2023-05-14T10:35:22.744Z,982.31
2023-05-14T10:36:23.169Z,982.32
2023-05-14T10:37:23.158Z,982.31
2023-05-14T10:38:22.485Z,982.28
2023-05-14T10:39:22.569Z,982.24
2023-05-14T10:40:22.721Z,982.22
2023-05-14T10:41:22.559Z,982.21
2023-05-14T10:42:22.481Z,982.19
2023-05-14T10:43:22.563Z,982.18
2023-05-14T10:44:22.463Z,982.18
2023-05-14T10:45:22.381Z,982.19
2023-05-14T10:46:22.450Z,982.16
2023-05-14T10:47:22.375Z,982.17
2023-05-14T10:48:22.445Z,982.16
2023-05-14T10:49:36.094Z,982.12
2023-05-14T10:50:23.775Z,982.12
2023-05-14T10:51:26.473Z,982.13
2023-05-14T10:52:22.366Z,982.13
2023-05-14T10:53:22.332Z,982.11
2023-05-14T10:54:22.759Z,982.06
2023-05-14T10:55:22.294Z,982.11
2023-05-14T10:56:22.425Z,982.08
2023-05-14T10:57:22.553Z,982.08
2023-05-14T10:58:22.641Z,982.10
2023-05-14T10:59:22.238Z,982.06
2023-05-14T11:00:22.571Z,982.08
2023-05-14T11:01:22.382Z,982.10
2023-05-14T11:02:22.268Z,982.05
2023-05-14T11:03:22.302Z,982.02
2023-05-14T11:04:22.220Z,982.06
2023-05-14T11:05:22.192Z,982.05
2023-05-14T11:06:22.284Z,982.05
2023-05-14T11:07:22.139Z,981.98
2023-05-14T11:08:24.820Z,982.01
2023-05-14T11:09:22.162Z,982.00
2023-05-14T11:10:22.508Z,981.98
2023-05-14T11:11:22.182Z,982.03
2023-05-14T11:12:22.131Z,981.97
2023-05-14T11:13:22.100Z,981.97
2023-05-14T11:14:22.183Z,981.93
2023-05-14T11:15:22.208Z,981.89
2023-05-14T11:16:23.685Z,981.90
2023-05-14T11:17:22.233Z,981.89
2023-05-14T11:18:22.233Z,981.86
2023-05-14T11:19:22.026Z,981.87
2023-05-14T11:20:22.353Z,981.79
2023-05-14T11:21:22.026Z,981.76
2023-05-14T11:22:22.254Z,981.73
2023-05-14T11:23:21.983Z,981.75
2023-05-14T11:24:21.995Z,981.72
2023-05-14T11:25:21.991Z,981.66
2023-05-14T11:26:21.993Z,981.74
2023-05-14T11:27:21.904Z,981.71
2023-05-14T11:28:21.948Z,981.73
2023-05-14T11:29:22.002Z,981.68
2023-05-14T11:30:22.100Z,981.73
2023-05-14T11:31:21.927Z,981.67
2023-05-14T11:32:21.974Z,981.66
2023-05-14T11:33:21.862Z,981.66
2023-05-14T11:34:21.878Z,981.64
2023-05-14T11:35:21.852Z,981.66
2023-05-14T11:36:21.840Z,981.60
2023-05-14T11:37:22.136Z,981.58
2023-05-14T11:38:21.908Z,981.58
2023-05-14T11:39:22.253Z,981.59
2023-05-14T11:40:22.483Z,981.56
2023-05-14T11:41:21.981Z,981.55
2023-05-14T11:42:21.810Z,981.55
2023-05-14T11:43:21.741Z,981.52
2023-05-14T11:44:21.751Z,981.48
2023-05-14T11:45:21.752Z,981.43
2023-05-14T11:46:21.858Z,981.46
2023-05-14T11:47:21.694Z,981.51
2023-05-14T11:48:21.714Z,981.50
2023-05-14T11:49:21.668Z,981.45
2023-05-14T11:50:21.836Z,981.47
2023-05-14T11:51:21.647Z,981.45
2023-05-14T11:52:21.694Z,981.47
2023-05-14T11:53:21.648Z,981.45
2023-05-14T11:54:21.636Z,981.44
2023-05-14T11:55:21.640Z,981.41
2023-05-14T11:56:21.604Z,981.44
2023-05-14T11:57:21.614Z,981.42
2023-05-14T11:58:21.795Z,981.38
2023-05-14T11:59:21.563Z,981.33
2023-05-14T12:00:22.047Z,981.34
2023-05-14T12:01:21.694Z,981.33
2023-05-14T12:02:22.275Z,981.37
2023-05-14T12:03:22.426Z,981.38
2023-05-14T12:04:21.571Z,981.34
2023-05-14T12:05:22.022Z,981.36
2023-05-14T12:06:21.516Z,981.34
2023-05-14T12:07:21.623Z,981.40
2023-05-14T12:08:21.565Z,981.40
2023-05-14T12:09:21.601Z,981.40
2023-05-14T12:10:21.768Z,981.37
2023-05-14T12:11:21.432Z,981.37
2023-05-14T12:12:21.452Z,981.42
2023-05-14T12:13:21.452Z,981.41
2023-05-14T12:14:21.620Z,981.39
2023-05-14T12:15:21.410Z,981.42
2023-05-14T12:16:21.463Z,981.41
2023-05-14T12:17:21.442Z,981.38
2023-05-14T12:18:25.024Z,981.37
2023-05-14T12:19:21.572Z,981.32
2023-05-14T12:20:21.455Z,981.32
2023-05-14T12:21:21.339Z,981.32
2023-05-14T12:22:21.350Z,981.33
2023-05-14T12:23:21.304Z,981.31
2023-05-14T12:24:21.324Z,981.29
2023-05-14T12:25:21.399Z,981.23
2023-05-14T12:26:21.299Z,981.29
2023-05-14T12:27:21.248Z,981.27
2023-05-14T12:28:21.241Z,981.20